createdAt,value
2022-12-06T00:00:34.825Z,95630.3
2022-12-06T00:01:37.497Z,95626.2
2022-12-06T00:02:39.567Z,95627.8
2022-12-06T00:03:42.503Z,95627.8
2022-12-06T00:04:45.195Z,95626.1
2022-12-06T00:05:48.128Z,95625.8
2022-12-06T00:06:50.611Z,95627.4
2022-12-06T00:07:53.069Z,95628.8
2022-12-06T00:08:55.617Z,95629.7
2022-12-06T00:09:59.687Z,95635.2
2022-12-06T00:11:02.721Z,95634.9
2022-12-06T00:12:05.203Z,95632.3
2022-12-06T00:13:07.149Z,95633.7
2022-12-06T00:14:09.636Z,95632
2022-12-06T00:15:12.185Z,95632
2022-12-06T00:16:15.027Z,95632.9
2022-12-06T00:17:17.318Z,95629.6
2022-12-06T00:18:19.826Z,95631.5
2022-12-06T00:19:22.028Z,95628.4
2022-12-06T00:20:24.494Z,95626.9
2022-12-06T00:21:27.426Z,95629.3
2022-12-06T00:22:29.901Z,95629.3
2022-12-06T00:23:33.319Z,95635
2022-12-06T00:24:35.242Z,95630.5
2022-12-06T00:25:37.588Z,95630.2
2022-12-06T00:26:40.065Z,95631.1
2022-12-06T00:27:42.272Z,95634.4
2022-12-06T00:28:44.742Z,95633.1
2022-12-06T00:29:47.236Z,95629
2022-12-06T00:30:49.497Z,95634.3
2022-12-06T00:31:52.590Z,95634.1
2022-12-06T00:32:55.206Z,95635.4
2022-12-06T00:33:57.689Z,95633.5
2022-12-06T00:34:59.884Z,95637.7
2022-12-06T00:36:02.100Z,95633.2
2022-12-06T00:37:04.317Z,95636.3
2022-12-06T00:38:06.536Z,95636.3
2022-12-06T00:39:09.021Z,95637.4
2022-12-06T00:40:11.232Z,95636.2
2022-12-06T00:41:13.714Z,95635.9
2022-12-06T00:42:16.195Z,95638.2
2022-12-06T00:43:18.676Z,95637.6
2022-12-06T00:44:20.598Z,95637.9
2022-12-06T00:45:22.783Z,95638.3
2022-12-06T00:46:25.770Z,95638
2022-12-06T00:47:28.481Z,95642.9
2022-12-06T00:48:30.382Z,95642.3
2022-12-06T00:49:32.870Z,95639.7
2022-12-06T00:50:35.356Z,95640.4
2022-12-06T00:51:37.292Z,95643.8
2022-12-06T00:52:39.783Z,95638.7
2022-12-06T00:53:41.697Z,95639.1
2022-12-06T00:54:43.904Z,95637.9
2022-12-06T00:55:46.386Z,95640.8
2022-12-06T00:56:48.861Z,95635.5
2022-12-06T00:57:51.353Z,95636.2
2022-12-06T00:58:53.823Z,95634.1
2022-12-06T00:59:56.327Z,95625.2
2022-12-06T01:00:58.987Z,95624.3
2022-12-06T01:02:01.359Z,95623.5
2022-12-06T01:03:04.176Z,95615.3
2022-12-06T01:04:06.781Z,95617
2022-12-06T01:05:09.259Z,95614.8
2022-12-06T01:06:11.468Z,95612.9
2022-12-06T01:07:13.951Z,95613
2022-12-06T01:08:16.824Z,95613.8
2022-12-06T01:09:19.556Z,95614
2022-12-06T01:10:21.776Z,95613.5
2022-12-06T01:11:23.980Z,95613.3
2022-12-06T01:12:26.186Z,95606.8
2022-12-06T01:13:28.693Z,95608.4
2022-12-06T01:14:31.178Z,95602.5
2022-12-06T01:15:33.647Z,95605.5
2022-12-06T01:16:36.621Z,95602.2
2022-12-06T01:17:39.243Z,95602.3
2022-12-06T01:18:41.750Z,95602.6
2022-12-06T01:19:44.259Z,95603.4
2022-12-06T01:20:46.469Z,95601.3
2022-12-06T01:21:48.946Z,95602.4
2022-12-06T01:22:51.419Z,95602.3
2022-12-06T01:23:53.627Z,95598.6
2022-12-06T01:24:55.833Z,95600.7
2022-12-06T01:25:58.031Z,95601.7
2022-12-06T01:27:00.524Z,95604.2
2022-12-06T01:28:03.006Z,95603.1
2022-12-06T01:29:05.198Z,95599.7
2022-12-06T01:30:07.399Z,95599.7
2022-12-06T01:31:10.130Z,95599.9
2022-12-06T01:32:12.477Z,95598.8
2022-12-06T01:33:15.051Z,95597.5
2022-12-06T01:34:17.546Z,95599.9
2022-12-06T01:35:19.482Z,95598.9
2022-12-06T01:36:21.681Z,95597.1
2022-12-06T01:37:23.331Z,95600.8
2022-12-06T01:38:24.964Z,95598.6
2022-12-06T01:39:27.466Z,95604.3
2022-12-06T01:40:29.963Z,95608.5
2022-12-06T01:41:32.160Z,95602.7
2022-12-06T01:42:34.080Z,95604.9
2022-12-06T01:43:36.546Z,95605.2
2022-12-06T01:44:39.030Z,95606.2
2022-12-06T01:45:41.455Z,95600.5
2022-12-06T01:46:43.907Z,95598.9
2022-12-06T01:47:46.385Z,95597.4
2022-12-06T01:48:48.672Z,95597.9
2022-12-06T01:49:50.884Z,95598.9
2022-12-06T01:50:53.380Z,95596.9
2022-12-06T01:51:55.575Z,95595.8
2022-12-06T01:52:58.056Z,95593.6
2022-12-06T01:54:00.537Z,95594.3
2022-12-06T01:55:03.126Z,95597.3
2022-12-06T01:56:05.600Z,95593.5
2022-12-06T01:57:07.803Z,95593.5
2022-12-06T01:58:10.286Z,95592.1
2022-12-06T01:59:12.769Z,95588.6
2022-12-06T02:00:15.247Z,95586.2
2022-12-06T02:01:17.610Z,95592.8
2022-12-06T02:02:20.481Z,95590.4
2022-12-06T02:03:23.058Z,95587.9
2022-12-06T02:04:25.608Z,95587.7
2022-12-06T02:05:27.845Z,95589.3
2022-12-06T02:06:29.771Z,95584.9
2022-12-06T02:07:32.129Z,95588.1
2022-12-06T02:08:34.419Z,95582.6
2022-12-06T02:09:36.087Z,95580.6
2022-12-06T02:10:38.608Z,95579.1
2022-12-06T02:11:40.835Z,95576.7
2022-12-06T02:12:43.302Z,95577.1
2022-12-06T02:13:45.799Z,95576.8
2022-12-06T02:14:48.277Z,95571.6
2022-12-06T02:15:50.483Z,95570.5
2022-12-06T02:16:53.290Z,95569.3
2022-12-06T02:17:56.070Z,95571.2
2022-12-06T02:18:58.545Z,95570.9
2022-12-06T02:20:02.424Z,95571.4
2022-12-06T02:21:05.380Z,95573.6
2022-12-06T02:22:07.591Z,95579.3
2022-12-06T02:23:09.789Z,95574.3
2022-12-06T02:24:12.285Z,95573.3
2022-12-06T02:25:14.486Z,95571.3
2022-12-06T02:26:17.001Z,95569.5
2022-12-06T02:27:18.919Z,95570.8
2022-12-06T02:28:21.397Z,95568.7
2022-12-06T02:29:23.591Z,95564.6
2022-12-06T02:30:25.796Z,95564.7
2022-12-06T02:31:28.816Z,95561.4
2022-12-06T02:32:31.461Z,95561.5
2022-12-06T02:33:33.384Z,95554.1
2022-12-06T02:34:35.858Z,95559.4
2022-12-06T02:35:38.100Z,95554
2022-12-06T02:36:40.575Z,95553.7
2022-12-06T02:37:42.787Z,95548.6
2022-12-06T02:38:45.260Z,95555.5
2022-12-06T02:39:47.463Z,95552.3
2022-12-06T02:40:49.927Z,95556.6
2022-12-06T02:41:52.191Z,95554.3
2022-12-06T02:42:54.107Z,95548.5
2022-12-06T02:43:56.322Z,95551.7
2022-12-06T02:44:58.792Z,95549.4
2022-12-06T02:46:01.392Z,95546.9
2022-12-06T02:47:03.966Z,95549.4
2022-12-06T02:48:06.463Z,95549.4
2022-12-06T02:49:08.671Z,95550.8
2022-12-06T02:50:11.153Z,95545.4
2022-12-06T02:51:13.689Z,95546.7
2022-12-06T02:52:16.198Z,95550.6
2022-12-06T02:53:18.673Z,95547.5
2022-12-06T02:54:21.149Z,95542.3
2022-12-06T02:55:23.345Z,95545.3
2022-12-06T02:56:25.645Z,95540.6
2022-12-06T02:57:28.150Z,95540.5
2022-12-06T02:58:30.361Z,95538.5
2022-12-06T02:59:32.253Z,95540
2022-12-06T03:00:34.741Z,95536
2022-12-06T03:01:37.200Z,95539.8
2022-12-06T03:02:40.067Z,95540.1
2022-12-06T03:03:42.683Z,95536.5
2022-12-06T03:04:44.869Z,95539.5
2022-12-06T03:05:47.064Z,95543.4
2022-12-06T03:06:49.626Z,95542
2022-12-06T03:07:52.374Z,95543.5
2022-12-06T03:08:54.621Z,95543.6
2022-12-06T03:09:56.813Z,95541.1
2022-12-06T03:10:59.255Z,95542.3
2022-12-06T03:12:01.469Z,95545
2022-12-06T03:13:03.691Z,95543.8
2022-12-06T03:14:06.899Z,95547.9
2022-12-06T03:15:10.702Z,95546.7
2022-12-06T03:16:13.491Z,95548.4
2022-12-06T03:17:16.240Z,95542.7
2022-12-06T03:18:18.714Z,95550.4
2022-12-06T03:19:20.914Z,95547.3
2022-12-06T03:20:23.392Z,95543.1
2022-12-06T03:21:25.589Z,95542.2
2022-12-06T03:22:27.841Z,95540
2022-12-06T03:23:30.347Z,95542.6
2022-12-06T03:24:32.806Z,95538.2
2022-12-06T03:25:34.863Z,95540.9
2022-12-06T03:26:37.344Z,95538.5
2022-12-06T03:27:39.813Z,95538.2
2022-12-06T03:28:42.310Z,95536.4
2022-12-06T03:29:44.527Z,95538.8
2022-12-06T03:30:47.310Z,95532.7
2022-12-06T03:31:49.904Z,95535.8
2022-12-06T03:32:52.092Z,95532.6
2022-12-06T03:33:54.292Z,95536
2022-12-06T03:34:56.517Z,95534.9
2022-12-06T03:35:58.994Z,95535.4
2022-12-06T03:37:01.178Z,95532.3
2022-12-06T03:38:03.715Z,95534.9
2022-12-06T03:39:06.224Z,95533
2022-12-06T03:40:08.414Z,95535.1
2022-12-06T03:41:10.920Z,95533.1
2022-12-06T03:42:12.859Z,95534.8
2022-12-06T03:43:15.067Z,95532.3
2022-12-06T03:44:17.581Z,95534.1
2022-12-06T03:45:20.164Z,95536.5
2022-12-06T03:46:23.605Z,95532.4
2022-12-06T03:47:26.162Z,95534.2
2022-12-06T03:48:28.635Z,95533.5
2022-12-06T03:49:31.133Z,95530.1
2022-12-06T03:50:33.032Z,95534
2022-12-06T03:51:35.520Z,95535.5
2022-12-06T03:52:37.982Z,95532.4
2022-12-06T03:53:40.253Z,95530.8
2022-12-06T03:54:42.748Z,95530.5
2022-12-06T03:55:44.383Z,95537.7
2022-12-06T03:56:46.556Z,95536.4
2022-12-06T03:57:49.052Z,95531.3
2022-12-06T03:58:51.244Z,95534.3
2022-12-06T03:59:53.739Z,95532.2
2022-12-06T04:00:56.227Z,95529.7
2022-12-06T04:01:58.991Z,95529.7
2022-12-06T04:03:01.526Z,95527.3
2022-12-06T04:04:04.440Z,95520.8
2022-12-06T04:05:06.759Z,95523.5
2022-12-06T04:06:09.244Z,95524.3
2022-12-06T04:07:11.443Z,95520.3
2022-12-06T04:08:13.427Z,95523.1
2022-12-06T04:09:15.854Z,95525
2022-12-06T04:10:18.356Z,95519.9
2022-12-06T04:11:20.557Z,95520.9
2022-12-06T04:12:23.049Z,95518.6
2022-12-06T04:13:25.526Z,95517.7
2022-12-06T04:14:27.736Z,95524.5
2022-12-06T04:15:30.236Z,95529.5
2022-12-06T04:16:32.464Z,95528.9
2022-12-06T04:17:34.775Z,95530.7
2022-12-06T04:18:37.255Z,95530
2022-12-06T04:19:39.742Z,95528.3
2022-12-06T04:20:41.952Z,95530
2022-12-06T04:21:44.427Z,95530.6
2022-12-06T04:22:46.897Z,95527.2
2022-12-06T04:23:49.378Z,95525.4
2022-12-06T04:24:51.918Z,95526.3
2022-12-06T04:25:54.425Z,95524.4
2022-12-06T04:26:56.898Z,95527.5
2022-12-06T04:27:59.379Z,95522.3
2022-12-06T04:29:01.841Z,95525.5
2022-12-06T04:30:04.320Z,95520.3
2022-12-06T04:31:07.210Z,95522
2022-12-06T04:32:09.751Z,95521.5
2022-12-06T04:33:11.953Z,95520.9
2022-12-06T04:34:14.134Z,95521.7
2022-12-06T04:35:16.362Z,95521.1
2022-12-06T04:36:18.842Z,95521
2022-12-06T04:37:21.057Z,95517.3
2022-12-06T04:38:23.537Z,95520.6
2022-12-06T04:39:26.016Z,95519.4
2022-12-06T04:40:28.563Z,95518.4
2022-12-06T04:41:31.063Z,95518.6
2022-12-06T04:42:33.540Z,95520.9
2022-12-06T04:43:35.731Z,95518.3
2022-12-06T04:44:38.218Z,95517.8
2022-12-06T04:45:40.125Z,95515.1
2022-12-06T04:46:42.651Z,95514.1
2022-12-06T04:47:45.275Z,95516.3
2022-12-06T04:48:47.511Z,95515.2
2022-12-06T04:49:49.445Z,95518.6
2022-12-06T04:50:51.940Z,95517.2
2022-12-06T04:51:54.415Z,95514.2
2022-12-06T04:52:56.890Z,95513.7
2022-12-06T04:53:59.082Z,95512
2022-12-06T04:55:01.005Z,95514
2022-12-06T04:56:03.549Z,95512
2022-12-06T04:57:06.053Z,95513.2
2022-12-06T04:58:08.526Z,95511.8
2022-12-06T04:59:11.007Z,95513.3
2022-12-06T05:00:13.197Z,95514.8
2022-12-06T05:01:15.719Z,95507.8
2022-12-06T05:02:18.432Z,95512.7
2022-12-06T05:03:21.142Z,95512.6
2022-12-06T05:04:23.876Z,95511.2
2022-12-06T05:05:26.604Z,95511.8
2022-12-06T05:06:29.081Z,95516.5
2022-12-06T05:07:31.303Z,95515.4
2022-12-06T05:08:33.708Z,95513.6
2022-12-06T05:09:35.911Z,95516.8
2022-12-06T05:10:38.114Z,95516
2022-12-06T05:11:40.613Z,95518.5
2022-12-06T05:12:43.657Z,95519.5
2022-12-06T05:13:46.201Z,95516.8
2022-12-06T05:14:48.682Z,95522.7
2022-12-06T05:15:51.428Z,95519.5
2022-12-06T05:16:54.123Z,95518.6
2022-12-06T05:17:56.741Z,95515.3
2022-12-06T05:18:58.975Z,95517.3
2022-12-06T05:20:02.704Z,95519.1
2022-12-06T05:21:04.948Z,95518.5
2022-12-06T05:22:07.128Z,95514.8
2022-12-06T05:23:09.323Z,95510.4
2022-12-06T05:24:11.546Z,95513
2022-12-06T05:25:14.059Z,95512.3
2022-12-06T05:26:16.552Z,95510.5
2022-12-06T05:27:18.813Z,95511.3
2022-12-06T05:28:21.321Z,95509.3
2022-12-06T05:29:23.530Z,95511.1
2022-12-06T05:30:26.013Z,95510.2
2022-12-06T05:31:28.221Z,95515.5
2022-12-06T05:32:30.906Z,95518.6
2022-12-06T05:33:33.412Z,95517.9
2022-12-06T05:34:35.887Z,95517
2022-12-06T05:35:38.382Z,95517.7
2022-12-06T05:36:40.867Z,95518.9
2022-12-06T05:37:43.054Z,95517.4
2022-12-06T05:39:50.216Z,95518.6
2022-12-06T05:40:52.407Z,95521.5
2022-12-06T05:41:54.884Z,95523.3
2022-12-06T05:42:56.883Z,95517.3
2022-12-06T05:43:58.822Z,95517.9
2022-12-06T05:45:01.313Z,95514.8
2022-12-06T05:46:03.891Z,95516.6
2022-12-06T05:47:06.519Z,95512.3
2022-12-06T05:48:09.007Z,95517
2022-12-06T05:49:11.230Z,95517.1
2022-12-06T05:50:13.430Z,95514.4
2022-12-06T05:51:15.909Z,95517.7
2022-12-06T05:52:18.095Z,95519.3
2022-12-06T05:53:20.684Z,95514.5
2022-12-06T05:54:23.226Z,95515.3
2022-12-06T05:55:25.452Z,95514.8
2022-12-06T05:56:27.922Z,95511.1
2022-12-06T05:57:30.417Z,95511.3
2022-12-06T05:58:32.680Z,95509.8
2022-12-06T05:59:35.181Z,95514.3
2022-12-06T06:00:37.384Z,95510.7
2022-12-06T06:01:40.264Z,95514.8
2022-12-06T06:02:43.657Z,95508.2
2022-12-06T06:04:51.485Z,95509.5
2022-12-06T06:05:53.705Z,95510.2
2022-12-06T06:06:55.912Z,95511.4
2022-12-06T06:07:58.422Z,95511.2
2022-12-06T06:09:00.745Z,95510.1
2022-12-06T06:10:03.612Z,95508.3
2022-12-06T06:11:05.809Z,95509.9
2022-12-06T06:13:13.265Z,95509
2022-12-06T06:14:15.814Z,95507.3
2022-12-06T06:15:18.304Z,95513.1
2022-12-06T06:16:20.900Z,95505.5
2022-12-06T06:17:23.550Z,95507.3
2022-12-06T06:18:26.054Z,95504
2022-12-06T06:19:28.247Z,95508.1
2022-12-06T06:20:30.742Z,95506.4
2022-12-06T06:21:32.953Z,95510.1
2022-12-06T06:22:34.864Z,95508.5
2022-12-06T06:23:37.344Z,95508.1
2022-12-06T06:24:39.838Z,95507
2022-12-06T06:25:42.029Z,95512.3
2022-12-06T06:26:44.525Z,95510.6
2022-12-06T06:27:46.468Z,95507.6
2022-12-06T06:28:48.419Z,95510.4
2022-12-06T06:29:50.977Z,95517.3
2022-12-06T06:30:53.492Z,95518.6
2022-12-06T06:31:55.137Z,95517.4
2022-12-06T06:32:57.751Z,95517.1
2022-12-06T06:33:59.414Z,95519.9
2022-12-06T06:35:01.938Z,95520.1
2022-12-06T06:36:04.487Z,95521
2022-12-06T06:37:07.036Z,95518
2022-12-06T06:38:08.692Z,95521.8
2022-12-06T06:39:10.899Z,95521.3
2022-12-06T06:40:12.829Z,95514.9
2022-12-06T06:41:15.048Z,95517.8
2022-12-06T06:42:17.238Z,95515.8
2022-12-06T06:43:19.734Z,95515.6
2022-12-06T06:44:22.501Z,95519.6
2022-12-06T06:46:30.252Z,95514.3
2022-12-06T06:47:32.845Z,95513.7
2022-12-06T06:48:35.037Z,95511.2
2022-12-06T06:49:37.538Z,95510.8
2022-12-06T06:50:39.740Z,95513.6
2022-12-06T06:51:42.300Z,95518.1
2022-12-06T06:52:44.489Z,95515.6
2022-12-06T06:53:46.984Z,95516.5
2022-12-06T06:54:49.467Z,95514.1
2022-12-06T06:55:51.406Z,95518.6
2022-12-06T06:56:53.894Z,95513.4
2022-12-06T06:57:55.823Z,95508.8
2022-12-06T06:58:58.285Z,95514.8
2022-12-06T07:00:01.988Z,95511.1
2022-12-06T07:01:05.661Z,95515.5
2022-12-06T07:02:08.357Z,95514.8
2022-12-06T07:03:10.918Z,95510.9
2022-12-06T07:04:13.415Z,95515.2
2022-12-06T07:05:15.606Z,95514.4
2022-12-06T07:06:17.521Z,95512.6
2022-12-06T07:08:24.974Z,95517.3
2022-12-06T07:09:27.188Z,95515.7
2022-12-06T07:10:29.453Z,95516.5
2022-12-06T07:11:31.768Z,95520
2022-12-06T07:12:34.250Z,95523
2022-12-06T07:13:35.637Z,95521.6
2022-12-06T07:14:38.107Z,95521.8
2022-12-06T07:15:40.341Z,95523.4
2022-12-06T07:16:42.294Z,95521.7
2022-12-06T07:17:45.039Z,95523
2022-12-06T07:18:47.637Z,95523.9
2022-12-06T07:19:50.184Z,95524
2022-12-06T07:20:52.663Z,95525.8
2022-12-06T07:21:55.180Z,95527.6
2022-12-06T07:22:57.702Z,95528.3
2022-12-06T07:23:59.927Z,95524.8
2022-12-06T07:25:02.107Z,95525
2022-12-06T07:26:04.049Z,95523.1
2022-12-06T07:27:06.548Z,95524.6
2022-12-06T07:28:08.507Z,95521.9
2022-12-06T07:29:10.702Z,95517.7
2022-12-06T07:31:18.261Z,95518.9
2022-12-06T07:32:20.586Z,95521.9
2022-12-06T07:33:22.857Z,95523.3
2022-12-06T07:34:25.122Z,95521.7
2022-12-06T07:36:32.315Z,95522.8
2022-12-06T07:37:33.690Z,95524.1
2022-12-06T07:38:35.637Z,95520
2022-12-06T07:39:38.128Z,95519.6
2022-12-06T07:41:45.320Z,95521.6
2022-12-06T07:42:47.838Z,95520.9
2022-12-06T07:43:50.077Z,95524.2
2022-12-06T07:45:57.774Z,95520.4
2022-12-06T07:47:00.178Z,95520.4
2022-12-06T07:48:02.662Z,95518.7
2022-12-06T07:49:05.231Z,95518.5
2022-12-06T07:50:14.481Z,95521.8
2022-12-06T07:51:16.420Z,95517.5
2022-12-06T07:52:18.339Z,95521.2
2022-12-06T07:53:20.837Z,95521.3
2022-12-06T07:54:23.084Z,95521.9
2022-12-06T07:55:25.556Z,95518.9
2022-12-06T07:56:27.767Z,95523.5
2022-12-06T07:57:30.241Z,95521.3
2022-12-06T07:58:32.788Z,95524.5
2022-12-06T07:59:35.279Z,95521.4
2022-12-06T08:00:37.774Z,95520.8
2022-12-06T08:01:40.693Z,95517.5
2022-12-06T08:02:43.131Z,95517.2
2022-12-06T08:03:45.076Z,95519.1
2022-12-06T08:04:48.123Z,95517.8
2022-12-06T08:05:50.816Z,95516.5
2022-12-06T08:06:52.738Z,95517.7
2022-12-06T08:07:55.182Z,95515
2022-12-06T08:08:57.520Z,95520.9
2022-12-06T08:10:01.232Z,95518.4
2022-12-06T08:11:04.244Z,95518
2022-12-06T08:12:06.766Z,95520
2022-12-06T08:13:09.274Z,95516.4
2022-12-06T08:14:11.504Z,95518.2
2022-12-06T08:15:14.031Z,95513.8
2022-12-06T08:16:16.264Z,95516.3
2022-12-06T08:17:18.946Z,95516.5
2022-12-06T08:18:21.429Z,95514.9
2022-12-06T08:19:23.640Z,95516.4
2022-12-06T08:20:26.261Z,95512.8
2022-12-06T08:21:28.578Z,95513.2
2022-12-06T08:22:31.072Z,95513.5
2022-12-06T08:24:38.526Z,95509.5
2022-12-06T08:25:40.781Z,95510.9
2022-12-06T08:26:42.723Z,95508.7
2022-12-06T08:27:44.638Z,95512.7
2022-12-06T08:28:46.836Z,95509.1
2022-12-06T08:29:49.318Z,95512.8
2022-12-06T08:30:52.097Z,95516.3
2022-12-06T08:31:54.461Z,95514.3
2022-12-06T08:32:56.936Z,95520.6
2022-12-06T08:33:59.434Z,95519.5
2022-12-06T08:35:01.375Z,95519.2
2022-12-06T08:36:03.938Z,95519.6
2022-12-06T08:37:05.629Z,95522.6
2022-12-06T08:38:07.858Z,95521.6
2022-12-06T08:39:10.060Z,95518.7
2022-12-06T08:40:12.257Z,95513
2022-12-06T08:41:14.489Z,95518.7
2022-12-06T08:43:21.951Z,95519.2
2022-12-06T08:44:24.174Z,95519.6
2022-12-06T08:45:26.127Z,95522.5
2022-12-06T08:46:28.915Z,95520.3
2022-12-06T08:47:30.649Z,95518.7
2022-12-06T08:48:34.547Z,95520.5
2022-12-06T08:49:41.997Z,95524.3
2022-12-06T08:50:43.643Z,95525.2
2022-12-06T08:51:45.937Z,95523.5
2022-12-06T08:52:48.473Z,95526.2
2022-12-06T08:53:50.672Z,95526.6
2022-12-06T08:54:52.885Z,95523.5
2022-12-06T08:56:59.837Z,95522.8
2022-12-06T08:58:01.771Z,95521.4
2022-12-06T08:59:03.967Z,95524.4
2022-12-06T09:00:06.485Z,95525.8
2022-12-06T09:01:08.376Z,95524.2
2022-12-06T09:02:10.967Z,95528.1
2022-12-06T09:03:13.550Z,95524.8
2022-12-06T09:04:15.881Z,95528.5
2022-12-06T09:05:18.251Z,95525.3
2022-12-06T09:06:20.757Z,95527.5
2022-12-06T09:07:23.155Z,95530.5
2022-12-06T09:08:25.701Z,95528.3
2022-12-06T09:09:28.053Z,95526.4
2022-12-06T09:10:30.543Z,95530.1
2022-12-06T09:11:33.021Z,95525.4
2022-12-06T09:12:35.542Z,95526
2022-12-06T09:13:37.761Z,95527.2
2022-12-06T09:14:39.695Z,95525.4
2022-12-06T09:15:42.225Z,95528.3
2022-12-06T09:16:43.996Z,95527.4
2022-12-06T09:17:46.194Z,95529.7
2022-12-06T09:18:48.688Z,95529.2
2022-12-06T09:19:50.629Z,95527.1
2022-12-06T09:20:52.856Z,95529.3
2022-12-06T09:21:54.781Z,95527.2
2022-12-06T09:22:57.352Z,95530.4
2022-12-06T09:23:59.863Z,95528.1
2022-12-06T09:25:02.373Z,95532.7
2022-12-06T09:26:04.594Z,95530.7
2022-12-06T09:27:07.089Z,95531.4
2022-12-06T09:28:09.658Z,95530.4
2022-12-06T09:29:11.873Z,95530.1
2022-12-06T09:30:13.525Z,95532.9
2022-12-06T09:31:16.293Z,95534.2
2022-12-06T09:32:18.380Z,95534.2
2022-12-06T09:33:20.885Z,95531.5
2022-12-06T09:34:23.074Z,95533.5
2022-12-06T09:35:26.833Z,95531.9
2022-12-06T09:36:28.747Z,95528.9
2022-12-06T09:37:30.669Z,95528.5
2022-12-06T09:38:33.006Z,95535.8
2022-12-06T09:39:35.342Z,95530.4
2022-12-06T09:41:42.588Z,95531.1
2022-12-06T09:42:44.818Z,95522.7
2022-12-06T09:43:47.067Z,95524.9
2022-12-06T09:44:49.584Z,95524.3
2022-12-06T09:45:51.528Z,95522.8
2022-12-06T09:46:54.495Z,95524.4
2022-12-06T09:47:56.550Z,95520.8
2022-12-06T09:48:59.117Z,95511.7
2022-12-06T09:50:03.075Z,95511.5
2022-12-06T09:51:05.869Z,95511.5
2022-12-06T09:52:08.101Z,95503
2022-12-06T09:53:10.606Z,95503.5
2022-12-06T09:54:13.166Z,95501.7
2022-12-06T09:55:15.678Z,95499.2
2022-12-06T09:56:17.880Z,95495
2022-12-06T09:57:20.368Z,95495.6
2022-12-06T09:58:22.069Z,95494.9
2022-12-06T09:59:24.592Z,95493.3
2022-12-06T10:00:27.001Z,95491.2
2022-12-06T10:01:29.916Z,95489.6
2022-12-06T10:02:32.477Z,95487.6
2022-12-06T10:03:35.090Z,95489.5
2022-12-06T10:04:37.589Z,95489.7
2022-12-06T10:05:40.097Z,95492.5
2022-12-06T10:06:42.594Z,95486
2022-12-06T10:07:45.804Z,95490.9
2022-12-06T10:08:48.621Z,95485.4
2022-12-06T10:09:51.560Z,95486.8
2022-12-06T10:10:53.793Z,95485
2022-12-06T10:11:56.286Z,95486.3
2022-12-06T10:12:58.535Z,95489.2
2022-12-06T10:14:01.030Z,95483.6
2022-12-06T10:15:03.546Z,95483.1
2022-12-06T10:16:06.125Z,95478.2
2022-12-06T10:18:13.105Z,95479
2022-12-06T10:19:15.328Z,95477.3
2022-12-06T10:20:18.084Z,95480.5
2022-12-06T10:21:20.583Z,95476
2022-12-06T10:22:22.794Z,95474.3
2022-12-06T10:23:25.296Z,95469.2
2022-12-06T10:24:27.516Z,95467.5
2022-12-06T10:25:30.108Z,95461.6
2022-12-06T10:26:32.715Z,95461.6
2022-12-06T10:27:34.666Z,95459.8
2022-12-06T10:28:37.139Z,95457.2
2022-12-06T10:29:39.644Z,95455.1
2022-12-06T10:30:42.166Z,95452.3
2022-12-06T10:31:44.901Z,95454.9
2022-12-06T10:32:47.611Z,95463
2022-12-06T10:33:50.127Z,95467.7
2022-12-06T10:34:52.331Z,95465.8
2022-12-06T10:35:53.983Z,95466.4
2022-12-06T10:36:56.197Z,95455.4
2022-12-06T10:37:58.150Z,95454.9
2022-12-06T10:39:00.366Z,95457.3
2022-12-06T10:40:04.207Z,95456.1
2022-12-06T10:41:07.166Z,95457.6
2022-12-06T10:42:09.680Z,95457.8
2022-12-06T10:43:12.174Z,95465
2022-12-06T10:44:14.669Z,95461
2022-12-06T10:46:21.878Z,95450.1
2022-12-06T10:47:24.164Z,95443.2
2022-12-06T10:48:26.649Z,95440
2022-12-06T10:49:28.854Z,95451
2022-12-06T10:50:31.047Z,95444.3
2022-12-06T10:51:33.534Z,95437.2
2022-12-06T10:52:36.005Z,95435.4
2022-12-06T10:53:38.501Z,95432.6
2022-12-06T10:54:40.425Z,95440.8
2022-12-06T10:55:42.904Z,95439.4
2022-12-06T10:56:45.508Z,95440.9
2022-12-06T10:57:47.750Z,95440.5
2022-12-06T10:58:50.222Z,95436.5
2022-12-06T10:59:52.433Z,95429.7
2022-12-06T11:00:54.958Z,95433.9
2022-12-06T11:01:57.887Z,95431.4
2022-12-06T11:03:00.269Z,95434.1
2022-12-06T11:04:02.825Z,95424.7
2022-12-06T11:05:05.023Z,95426.4
2022-12-06T11:06:07.248Z,95435.4
2022-12-06T11:07:09.439Z,95431.6
2022-12-06T11:08:12.114Z,95428.5
2022-12-06T11:09:14.493Z,95425.8
2022-12-06T11:10:16.972Z,95422.7
2022-12-06T11:11:19.155Z,95423.1
2022-12-06T11:13:27.636Z,95428.8
2022-12-06T11:14:30.139Z,95431.4
2022-12-06T11:15:32.610Z,95435.2
2022-12-06T11:16:35.475Z,95431.6
2022-12-06T11:17:38.162Z,95435
2022-12-06T11:18:40.167Z,95435.7
2022-12-06T11:19:42.360Z,95433.4
2022-12-06T11:20:44.854Z,95423.8
2022-12-06T11:21:47.506Z,95422.9
2022-12-06T11:22:50.011Z,95420.9
2022-12-06T11:23:52.212Z,95419.5
2022-12-06T11:24:54.700Z,95422.5
2022-12-06T11:26:11.821Z,95428.4
2022-12-06T11:27:14.300Z,95427.4
2022-12-06T11:28:16.872Z,95423.8
2022-12-06T11:29:18.830Z,95423.9
2022-12-06T11:30:22.680Z,95420.1
2022-12-06T11:31:25.297Z,95420
2022-12-06T11:32:27.948Z,95423.7
2022-12-06T11:33:30.440Z,95422.9
2022-12-06T11:34:32.650Z,95425.3
2022-12-06T11:35:34.855Z,95422.2
2022-12-06T11:36:37.349Z,95420.5
2022-12-06T11:38:44.511Z,95422.7
2022-12-06T11:39:46.438Z,95431.9
2022-12-06T11:40:48.645Z,95436.8
2022-12-06T11:41:50.861Z,95445.8
2022-12-06T11:42:53.352Z,95443.6
2022-12-06T11:43:55.948Z,95441.4
2022-12-06T11:44:58.465Z,95435.9
2022-12-06T11:46:01.006Z,95434.2
2022-12-06T11:47:03.761Z,95429.5
2022-12-06T11:48:05.570Z,95432.1
2022-12-06T11:49:08.327Z,95440.7
2022-12-06T11:51:15.493Z,95438
2022-12-06T11:52:17.995Z,95436
2022-12-06T11:53:20.220Z,95436.2
2022-12-06T11:54:22.431Z,95429.9
2022-12-06T11:55:24.655Z,95427.7
2022-12-06T11:56:27.139Z,95427.4
2022-12-06T11:57:29.341Z,95428.8
2022-12-06T11:58:31.541Z,95428.8
2022-12-06T11:59:33.799Z,95434.9
2022-12-06T12:00:35.746Z,95431
2022-12-06T12:01:38.518Z,95432.2
2022-12-06T12:02:41.571Z,95429.1
2022-12-06T12:03:44.648Z,95434.2
2022-12-06T12:04:47.086Z,95434
2022-12-06T12:05:49.287Z,95432.1
2022-12-06T12:06:51.484Z,95433.4
2022-12-06T12:07:53.958Z,95431.4
2022-12-06T12:08:56.548Z,95430.7
2022-12-06T12:09:59.047Z,95431.6
2022-12-06T12:11:01.266Z,95433.3
2022-12-06T12:12:04.822Z,95431.5
2022-12-06T12:13:07.030Z,95433.8
2022-12-06T12:14:09.512Z,95433.4
2022-12-06T12:15:12.057Z,95431.5
2022-12-06T12:16:14.809Z,95429.9
2022-12-06T12:17:17.453Z,95423.3
2022-12-06T12:18:19.929Z,95427.4
2022-12-06T12:19:22.434Z,95429.7
2022-12-06T12:20:24.661Z,95425.2
2022-12-06T12:21:26.861Z,95417.3
2022-12-06T12:22:29.339Z,95420.8
2022-12-06T12:23:31.826Z,95422.2
2022-12-06T12:25:39.459Z,95419
2022-12-06T12:26:41.955Z,95422.6
2022-12-06T12:27:44.165Z,95420.7
2022-12-06T12:28:46.662Z,95420
2022-12-06T12:29:49.135Z,95412.9
2022-12-06T12:30:51.369Z,95411.5
2022-12-06T12:31:54.223Z,95411.1
2022-12-06T12:32:56.901Z,95410.8
2022-12-06T12:33:59.100Z,95406.9
2022-12-06T12:35:02.979Z,95410
2022-12-06T12:36:05.276Z,95406.9
2022-12-06T12:37:07.205Z,95413.1
2022-12-06T12:38:09.683Z,95410.1
2022-12-06T12:39:12.185Z,95407.4
2022-12-06T12:40:14.715Z,95406.6
2022-12-06T12:41:17.036Z,95403.7
2022-12-06T12:42:19.269Z,95409.8
2022-12-06T12:43:21.256Z,95403.7
2022-12-06T12:45:28.443Z,95397.4
2022-12-06T12:46:31.283Z,95395.4
2022-12-06T12:47:33.600Z,95391.3
2022-12-06T12:48:36.114Z,95392
2022-12-06T12:49:38.602Z,95393.2
2022-12-06T12:50:41.127Z,95389.9
2022-12-06T12:52:49.074Z,95390.9
2022-12-06T12:53:51.726Z,95388.5
2022-12-06T12:54:53.655Z,95390
2022-12-06T12:55:55.890Z,95387.4
2022-12-06T12:56:58.075Z,95385.4
2022-12-06T12:58:00.282Z,95388.3
2022-12-06T12:59:01.951Z,95382.5
2022-12-06T13:00:04.447Z,95381.2
2022-12-06T13:01:07.312Z,95377.1
2022-12-06T13:02:10.009Z,95382.2